Terminal Aerodrome Forecast
Issued by NWS Sioux Falls, SD

Home | Current Version | Previous Version | Text Only | Print | Product List | Glossary On
Versions: 1 2 3 4 5 6 7 8 9 10 11 12 13 14
000
FTUS43 KFSD 071100
TAFFSD
TAF
KFSD 071126Z 0712/0812 21005KT P6SM SCT120
     FM071700 20008KT P6SM SCT050 BKN100
      TEMPO 0717/0721 4SM -TSRA BKN080CB
     FM072100 27010KT P6SM BKN050
     FM080100 31007KT P6SM FEW120=

USA.gov is the U.S. government's official web portal to all federal, state and local government web resources and services.